Time;durP1;ratioP1;P1;durP2;ratioP2;P2;SDS_P1;SDS_P2;PMS_P1;PMS_P2;Temp;Humidity;BMP_temperature;BMP_pressure;BME280_temperature;BME280_humidity;BME280_pressure;Samples;Min_cycle;Max_cycle;Signal;HPM_P1;HPM_P2
2021/09/28 00:00:23;;;;;;;9.55;2.60;;;;;;;12.14;100.00;99285.72;5064668;28;20083;-66
2021/09/28 00:02:48;;;;;;;8.77;2.67;;;;;;;12.25;100.00;99286.41;5056789;28;20063;-66
2021/09/28 00:05:13;;;;;;;7.25;2.17;;;;;;;12.22;100.00;99302.28;5047581;28;20096;-66
2021/09/28 00:07:39;;;;;;;16.20;2.85;;;;;;;12.17;100.00;99301.50;5048212;28;20321;-66
2021/09/28 00:10:04;;;;;;;7.03;2.10;;;;;;;12.29;100.00;99306.59;5064939;28;20025;-66
2021/09/28 00:12:30;;;;;;;7.53;2.30;;;;;;;12.37;100.00;99314.41;5064153;28;20360;-66
2021/09/28 00:14:56;;;;;;;11.25;3.03;;;;;;;12.40;100.00;99317.84;5055347;28;20079;-66
2021/09/28 00:17:21;;;;;;;9.98;3.00;;;;;;;12.41;100.00;99319.56;5064832;28;20025;-66
2021/09/28 00:19:46;;;;;;;8.88;2.72;;;;;;;12.29;100.00;99335.63;5065142;28;20080;-66
2021/09/28 00:22:12;;;;;;;12.75;3.45;;;;;;;12.26;100.00;99314.56;5064185;28;20028;-66
2021/09/28 00:24:37;;;;;;;9.38;2.60;;;;;;;12.17;100.00;99319.09;5065703;28;20025;-66
2021/09/28 00:27:03;;;;;;;9.23;2.88;;;;;;;12.07;100.00;99313.09;5065964;28;20024;-66
2021/09/28 00:29:29;;;;;;;14.40;3.20;;;;;;;12.11;100.00;99317.41;5065798;28;20021;-66
2021/09/28 00:31:54;;;;;;;10.32;3.83;;;;;;;12.12;100.00;99319.16;5066068;28;20081;-66
2021/09/28 00:34:20;;;;;;;9.23;4.03;;;;;;;12.08;100.00;99314.81;5065824;28;20277;-66
2021/09/28 00:36:45;;;;;;;12.65;4.07;;;;;;;12.03;100.00;99316.69;5065772;28;20091;-66
2021/09/28 00:39:10;;;;;;;10.18;4.40;;;;;;;11.96;100.00;99311.50;5065697;28;20211;-66
2021/09/28 00:41:36;;;;;;;10.15;5.00;;;;;;;11.83;100.00;99317.84;5065665;28;20025;-66
2021/09/28 00:44:02;;;;;;;10.32;4.95;;;;;;;11.84;100.00;99331.00;5065626;28;20060;-66
2021/09/28 00:46:27;;;;;;;10.52;4.82;;;;;;;11.86;100.00;99323.06;5065554;28;20025;-66
2021/09/28 00:48:53;;;;;;;12.63;4.35;;;;;;;11.83;100.00;99329.25;5065448;28;20025;-66
2021/09/28 00:51:19;;;;;;;11.88;4.43;;;;;;;11.85;100.00;99332.75;5064912;28;20024;-66
2021/09/28 00:53:48;;;;;;;15.55;5.57;;;;;;;11.82;100.00;99326.63;5065422;28;20025;-66
2021/09/28 00:56:17;;;;;;;13.07;4.82;;;;;;;11.81;100.00;99332.81;5065392;28;20292;-66
2021/09/28 00:58:43;;;;;;;13.77;5.03;;;;;;;11.79;100.00;99331.94;5065307;28;20020;-66
2021/09/28 01:01:09;;;;;;;20.83;5.43;;;;;;;11.74;100.00;99334.63;5050584;28;20028;-66
2021/09/28 01:03:35;;;;;;;20.52;5.80;;;;;;;11.61;100.00;99333.00;5045413;28;20021;-66
2021/09/28 01:06:01;;;;;;;17.10;6.40;;;;;;;11.58;100.00;99327.78;5053124;28;20027;-66
2021/09/28 01:08:27;;;;;;;21.60;6.95;;;;;;;11.49;100.00;99333.19;5064878;28;20254;-66
2021/09/28 01:10:53;;;;;;;18.35;7.25;;;;;;;11.58;100.00;99346.22;5065112;28;20021;-66
2021/09/28 01:13:20;;;;;;;21.08;7.82;;;;;;;11.57;100.00;99340.97;5064824;28;20044;-66
2021/09/28 01:16:00;;;;;;;18.80;6.35;;;;;;;11.49;100.00;99335.81;5065025;28;20025;-66
2021/09/28 01:18:28;;;;;;;23.00;8.13;;;;;;;11.52;100.00;99343.66;5057626;28;20014;-66
2021/09/28 01:20:54;;;;;;;18.42;8.98;;;;;;;11.57;100.00;99340.97;5047037;28;20025;-66
2021/09/28 01:23:19;;;;;;;17.33;8.43;;;;;;;11.43;100.00;99356.97;5064361;28;20220;-66
2021/09/28 01:25:45;;;;;;;21.85;8.48;;;;;;;11.26;100.00;99361.53;5046849;28;20018;-66
2021/09/28 01:28:10;;;;;;;16.70;8.45;;;;;;;11.20;100.00;99366.03;5056822;28;20021;-66
2021/09/28 01:30:36;;;;;;;23.15;8.32;;;;;;;11.16;100.00;99365.16;5058145;28;20364;-66
2021/09/28 01:33:01;;;;;;;19.55;8.25;;;;;;;11.08;100.00;99367.03;5044819;28;20028;-66
2021/09/28 01:35:28;;;;;;;23.63;9.55;;;;;;;11.04;100.00;99370.56;5062200;28;20059;-66
2021/09/28 01:37:53;;;;;;;25.15;10.07;;;;;;;11.03;100.00;99379.34;5056145;28;20009;-66
2021/09/28 01:40:19;;;;;;;17.45;8.38;;;;;;;10.98;100.00;99377.66;5062900;28;20054;-66
2021/09/28 01:42:44;;;;;;;22.98;10.32;;;;;;;10.99;100.00;99378.50;5063974;28;20012;-66
2021/09/28 01:45:10;;;;;;;18.90;10.02;;;;;;;10.99;100.00;99377.63;5046209;28;20195;-66
2021/09/28 01:47:35;;;;;;;20.58;9.95;;;;;;;10.99;100.00;99373.22;5044431;28;20028;-66
2021/09/28 01:50:01;;;;;;;26.50;9.38;;;;;;;11.00;100.00;99366.19;5045678;28;20198;-66
2021/09/28 01:52:26;;;;;;;20.05;9.75;;;;;;;11.02;100.00;99366.19;5052207;28;20017;-66
2021/09/28 01:54:51;;;;;;;19.83;10.23;;;;;;;10.95;100.00;99357.50;5062073;28;20025;-66
2021/09/28 01:57:17;;;;;;;22.92;10.65;;;;;;;10.88;100.00;99363.69;5045486;28;20040;-66
2021/09/28 01:59:42;;;;;;;22.05;10.77;;;;;;;10.87;100.00;99361.94;5056330;28;20019;-66
2021/09/28 02:02:08;;;;;;;19.75;9.93;;;;;;;10.85;100.00;99363.69;5060981;28;20039;-66
2021/09/28 02:04:33;;;;;;;19.70;9.10;;;;;;;10.69;100.00;99362.09;5064067;28;20016;-66
2021/09/28 02:06:59;;;;;;;23.90;10.70;;;;;;;10.70;100.00;99361.22;5064113;28;20096;-66
2021/09/28 02:09:24;;;;;;;19.88;10.63;;;;;;;10.66;100.00;99372.63;5064031;28;20032;-66
2021/09/28 02:11:50;;;;;;;31.67;11.35;;;;;;;10.63;100.00;99370.91;5064011;28;20066;-66
2021/09/28 02:14:15;;;;;;;24.73;11.68;;;;;;;10.68;100.00;99376.16;5063864;28;20075;-66
2021/09/28 02:16:45;;;;;;;22.77;10.65;;;;;;;10.73;100.00;99363.84;5063967;28;20021;-66
2021/09/28 02:19:13;;;;;;;30.13;11.65;;;;;;;10.74;100.00;99370.84;5063933;28;20013;-66
2021/09/28 02:21:39;;;;;;;33.10;12.07;;;;;;;10.76;100.00;99364.66;5063936;28;20021;-66
2021/09/28 02:24:04;;;;;;;23.15;11.82;;;;;;;10.82;100.00;99367.25;5063898;28;20025;-66
2021/09/28 02:26:30;;;;;;;23.77;11.07;;;;;;;10.87;100.00;99359.31;5063824;28;20021;-66
2021/09/28 02:28:55;;;;;;;22.20;9.52;;;;;;;10.92;100.00;99360.16;5063814;28;20053;-66
2021/09/28 02:31:22;;;;;;;26.60;11.38;;;;;;;10.85;100.00;99367.22;5063822;28;20305;-66
2021/09/28 02:33:48;;;;;;;25.05;9.85;;;;;;;10.85;100.00;99359.31;5061255;28;20028;-66
2021/09/28 02:36:13;;;;;;;24.17;11.55;;;;;;;10.90;100.00;99368.06;5062992;28;20017;-66
2021/09/28 02:38:39;;;;;;;20.17;9.85;;;;;;;10.82;100.00;99364.59;5061636;28;20201;-66
2021/09/28 02:41:05;;;;;;;24.42;10.10;;;;;;;10.87;100.00;99378.63;5063252;28;20066;-66
2021/09/28 02:43:30;;;;;;;26.42;10.63;;;;;;;10.87;100.00;99372.47;5063174;28;20075;-66
2021/09/28 02:45:56;;;;;;;21.80;10.20;;;;;;;10.98;100.00;99375.88;5054815;28;20028;-66
2021/09/28 02:48:21;;;;;;;29.88;10.75;;;;;;;10.97;100.00;99376.78;5063074;28;20021;-66
2021/09/28 02:50:47;;;;;;;18.77;9.05;;;;;;;10.91;100.00;99374.19;5061763;28;20024;-66
2021/09/28 02:53:13;;;;;;;17.05;9.05;;;;;;;10.97;100.00;99379.41;5054544;28;20092;-66
2021/09/28 02:55:39;;;;;;;19.35;8.63;;;;;;;11.05;100.00;99371.44;5061660;28;20088;-66
2021/09/28 02:58:05;;;;;;;19.65;8.68;;;;;;;11.04;100.00;99365.28;5058240;28;20024;-66
2021/09/28 03:00:30;;;;;;;16.52;8.63;;;;;;;11.07;100.00;99367.88;5044775;28;20080;-66
2021/09/28 03:02:56;;;;;;;18.27;8.65;;;;;;;11.15;100.00;99373.97;5060277;28;20017;-66
2021/09/28 03:05:21;;;;;;;26.25;10.32;;;;;;;11.09;100.00;99373.13;5052498;28;20017;-66
2021/09/28 03:07:46;;;;;;;20.13;8.48;;;;;;;11.08;100.00;99372.28;5043512;28;20022;-66
2021/09/28 03:10:12;;;;;;;19.45;9.07;;;;;;;11.02;100.00;99381.09;5044704;28;20024;-66
2021/09/28 03:12:37;;;;;;;23.17;9.10;;;;;;;10.97;100.00;99370.66;5044773;28;20045;-66
2021/09/28 03:15:04;;;;;;;14.73;8.60;;;;;;;11.05;100.00;99371.44;5043484;28;20029;-66
2021/09/28 03:17:29;;;;;;;11.13;7.93;;;;;;;11.03;100.00;99374.09;5044607;28;20024;-66
2021/09/28 03:19:54;;;;;;;16.10;9.05;;;;;;;11.06;100.00;99371.41;5058453;28;20096;-66
2021/09/28 03:22:20;;;;;;;18.63;9.00;;;;;;;10.90;100.00;99372.44;5061504;28;20140;-66
2021/09/28 03:24:45;;;;;;;16.13;9.45;;;;;;;10.83;100.00;99391.84;5061452;28;20032;-66
2021/09/28 03:27:10;;;;;;;16.63;9.02;;;;;;;10.82;100.00;99380.41;5061460;28;20047;-66
2021/09/28 03:29:36;;;;;;;14.63;8.95;;;;;;;10.71;100.00;99374.38;5048374;28;20071;-66
2021/09/28 03:32:02;;;;;;;20.10;9.55;;;;;;;10.70;100.00;99384.91;5042980;28;20328;-66
2021/09/28 03:34:27;;;;;;;19.42;9.32;;;;;;;10.75;100.00;99378.72;5045068;28;20024;-66
2021/09/28 03:36:53;;;;;;;18.50;10.00;;;;;;;10.75;100.00;99388.38;5049820;28;20079;-66
2021/09/28 03:39:18;;;;;;;15.60;8.88;;;;;;;10.59;100.00;99384.09;5044416;28;20020;-66
2021/09/28 03:41:44;;;;;;;25.48;9.40;;;;;;;10.60;100.00;99389.38;5051733;28;20013;-66
2021/09/28 03:44:10;;;;;;;18.65;10.60;;;;;;;10.45;100.00;99386.84;5058942;28;20025;-66
2021/09/28 03:46:35;;;;;;;20.00;9.77;;;;;;;10.43;100.00;99393.00;5046270;28;20017;-66
2021/09/28 03:49:01;;;;;;;17.17;9.98;;;;;;;10.43;100.00;99396.53;5046911;28;20030;-66
2021/09/28 03:51:26;;;;;;;14.68;8.13;;;;;;;10.42;100.00;99394.78;5045735;28;20041;-66
2021/09/28 03:53:52;;;;;;;17.70;9.32;;;;;;;10.53;100.00;99394.69;5045716;28;20025;-66
2021/09/28 03:56:21;;;;;;;17.23;9.20;;;;;;;10.42;100.00;99391.25;5045910;28;20240;-66
2021/09/28 03:58:47;;;;;;;17.42;8.60;;;;;;;10.39;100.00;99393.91;5045449;28;20302;-66
2021/09/28 04:01:13;;;;;;;20.17;8.93;;;;;;;10.36;100.00;99391.31;5046279;28;20067;-66
2021/09/28 04:03:42;;;;;;;26.02;9.07;;;;;;;10.32;100.00;99392.22;5045504;28;20101;-66
2021/09/28 04:06:09;;;;;;;17.25;9.10;;;;;;;10.33;100.00;99392.22;5059241;28;20028;-66
2021/09/28 04:08:34;;;;;;;39.80;10.32;;;;;;;10.35;100.00;99386.94;5047625;28;20024;-65
2021/09/28 04:11:00;;;;;;;27.17;10.70;;;;;;;10.32;100.00;99389.59;5057099;28;20028;-65
2021/09/28 04:13:25;;;;;;;25.38;10.07;;;;;;;10.36;100.00;99393.94;5060846;28;20029;-65
2021/09/28 04:15:52;;;;;;;20.98;9.80;;;;;;;10.49;100.00;99400.88;5046137;28;20052;-65
2021/09/28 04:18:18;;;;;;;17.52;8.90;;;;;;;10.48;100.00;99394.72;5046409;28;20190;-65
2021/09/28 04:20:45;;;;;;;27.65;10.07;;;;;;;10.56;100.00;99400.81;5046120;28;20063;-65
2021/09/28 04:23:12;;;;;;;23.17;10.73;;;;;;;10.56;100.00;99402.56;5046323;28;20363;-65
2021/09/28 04:25:38;;;;;;;23.63;11.18;;;;;;;10.63;100.00;99404.25;5046010;28;20096;-65
2021/09/28 04:28:04;;;;;;;19.20;10.18;;;;;;;10.69;100.00;99401.56;5044709;28;20221;-65
2021/09/28 04:30:30;;;;;;;18.38;9.98;;;;;;;10.60;100.00;99406.94;5046008;28;20088;-65
2021/09/28 04:32:56;;;;;;;19.52;8.65;;;;;;;10.61;100.00;99398.16;5045949;28;20021;-65
2021/09/28 04:35:22;;;;;;;27.15;9.93;;;;;;;10.60;100.00;99396.41;5045844;28;20021;-65
2021/09/28 04:37:47;;;;;;;23.25;10.80;;;;;;;10.63;100.00;99404.25;5045795;28;20209;-65
2021/09/28 04:40:13;;;;;;;20.67;9.50;;;;;;;10.61;100.00;99400.78;5045739;28;20028;-65
2021/09/28 04:42:39;;;;;;;26.98;9.90;;;;;;;10.63;100.00;99399.00;5045733;28;20068;-65
2021/09/28 04:45:06;;;;;;;25.00;9.13;;;;;;;10.61;100.00;99403.41;5045662;28;20307;-65
2021/09/28 04:47:32;;;;;;;15.73;8.13;;;;;;;10.66;100.00;99404.22;5045628;28;20213;-65
2021/09/28 04:49:58;;;;;;;17.73;8.48;;;;;;;10.61;100.00;99411.31;5045647;28;20027;-65
2021/09/28 04:52:23;;;;;;;14.82;8.65;;;;;;;10.49;100.00;99416.66;5045516;28;20086;-65
2021/09/28 04:54:49;;;;;;;20.92;9.98;;;;;;;10.54;100.00;99409.63;5045760;28;20262;-65
2021/09/28 04:57:14;;;;;;;20.83;9.05;;;;;;;10.53;100.00;99410.47;5045083;28;20041;-65
2021/09/28 04:59:40;;;;;;;25.00;7.13;;;;;;;10.35;100.00;99413.25;5045396;28;20013;-67
2021/09/28 05:02:05;;;;;;;12.88;7.22;;;;;;;10.27;100.00;99405.41;5045376;28;20217;-66
2021/09/28 05:04:30;;;;;;;11.93;7.72;;;;;;;10.26;100.00;99414.19;5045252;28;20024;-66
2021/09/28 05:06:56;;;;;;;20.23;8.27;;;;;;;10.27;100.00;99409.78;5045290;28;20021;-66
2021/09/28 05:09:22;;;;;;;13.15;6.30;;;;;;;10.23;100.00;99408.06;5045139;28;20097;-65
2021/09/28 05:11:48;;;;;;;14.65;8.95;;;;;;;10.20;100.00;99413.31;5045178;28;20317;-65
2021/09/28 05:14:13;;;;;;;18.85;8.15;;;;;;;10.31;100.00;99411.50;5044950;28;20308;-65
2021/09/28 05:16:39;;;;;;;14.98;8.68;;;;;;;10.34;100.00;99407.09;5045091;28;20068;-65
2021/09/28 05:19:05;;;;;;;21.73;9.35;;;;;;;10.47;100.00;99407.88;5045001;28;20021;-65
2021/09/28 05:21:31;;;;;;;15.70;9.45;;;;;;;10.54;100.00;99404.34;5044975;28;20017;-65
2021/09/28 05:23:56;;;;;;;25.48;9.45;;;;;;;10.60;100.00;99404.31;5045202;28;20120;-65
2021/09/28 05:26:23;;;;;;;27.08;9.90;;;;;;;10.69;100.00;99406.84;5044860;28;20088;-65
2021/09/28 05:28:49;;;;;;;31.27;9.88;;;;;;;10.70;100.00;99404.19;5044731;28;20064;-65
2021/09/28 05:31:15;;;;;;;15.02;9.27;;;;;;;10.75;100.00;99398.91;5044749;28;20021;-65
2021/09/28 05:33:40;;;;;;;64.30;11.80;;;;;;;10.76;100.00;99398.03;5044762;28;20190;-65
2021/09/28 05:36:06;;;;;;;25.40;10.77;;;;;;;10.85;100.00;99400.56;5044736;28;20313;-65
2021/09/28 05:38:32;;;;;;;26.75;13.25;;;;;;;10.99;100.00;99396.09;5044700;28;20024;-65
2021/09/28 05:40:58;;;;;;;65.30;15.07;;;;;;;11.06;100.00;99394.25;5044611;28;20248;-65
2021/09/28 05:43:24;;;;;;;38.90;14.93;;;;;;;11.16;100.00;99402.06;5044569;28;20075;-65
2021/09/28 05:45:50;;;;;;;27.80;12.95;;;;;;;11.25;100.00;99391.44;5044535;28;20028;-65
2021/09/28 05:48:16;;;;;;;32.00;15.18;;;;;;;11.30;100.00;99389.63;5044386;28;20080;-65
2021/09/28 05:50:42;;;;;;;37.85;13.15;;;;;;;11.39;100.00;99394.78;5043350;28;20032;-65
2021/09/28 05:53:09;;;;;;;53.17;13.18;;;;;;;11.45;100.00;99400.00;5044382;28;20087;-65
2021/09/28 05:55:36;;;;;;;140.13;17.95;;;;;;;11.48;100.00;99405.22;5044362;28;20021;-65
2021/09/28 05:58:02;;;;;;;87.85;15.52;;;;;;;11.48;100.00;99399.97;5044290;28;20075;-65
2021/09/28 06:00:27;;;;;;;79.65;15.07;;;;;;;11.37;100.00;99396.59;5044286;28;20317;-65
2021/09/28 06:02:53;;;;;;;88.65;14.32;;;;;;;11.44;100.00;99398.25;5044175;28;20028;-65
2021/09/28 06:05:20;;;;;;;37.05;13.88;;;;;;;11.55;100.00;99391.09;5044232;28;20028;-65
2021/09/28 06:07:46;;;;;;;70.20;15.48;;;;;;;11.47;100.00;99377.13;5043450;28;20025;-65
2021/09/28 06:10:11;;;;;;;62.33;14.93;;;;;;;11.49;100.00;99374.47;5044140;28;20213;-65
2021/09/28 06:12:37;;;;;;;67.22;13.73;;;;;;;11.60;100.00;99356.75;5043928;28;20087;-65
2021/09/28 06:15:02;;;;;;;30.08;13.27;;;;;;;11.61;100.00;99369.06;5044128;28;20021;-65
2021/09/28 06:17:28;;;;;;;67.50;16.25;;;;;;;11.68;100.00;99371.63;5044090;28;20029;-65
2021/09/28 06:19:53;;;;;;;45.22;12.50;;;;;;;11.75;100.00;99373.31;5044024;28;20028;-65
2021/09/28 06:22:19;;;;;;;43.85;11.05;;;;;;;11.82;100.00;99374.09;5044019;28;20248;-65
2021/09/28 06:24:44;;;;;;;17.30;9.90;;;;;;;11.91;100.00;99372.25;5042798;28;20029;-65
2021/09/28 06:27:10;;;;;;;31.83;11.02;;;;;;;11.94;100.00;99385.41;5043949;28;20194;-65
2021/09/28 06:29:35;;;;;;;55.38;12.07;;;;;;;12.03;100.00;99385.28;5043847;28;20067;-65
2021/09/28 06:32:02;;;;;;;34.60;12.35;;;;;;;12.09;100.00;99385.16;5043885;28;20031;-65
2021/09/28 06:34:27;;;;;;;36.45;12.50;;;;;;;12.18;100.00;99385.03;5044107;28;20067;-65
2021/09/28 06:36:53;;;;;;;34.83;12.73;;;;;;;12.15;100.00;99382.44;5043812;28;20081;-65
2021/09/28 06:39:18;;;;;;;35.35;12.55;;;;;;;12.10;100.00;99392.22;5043788;28;20013;-65
2021/09/28 06:41:44;;;;;;;100.57;13.07;;;;;;;12.02;100.00;99383.50;5043780;28;20075;-65
2021/09/28 06:44:09;;;;;;;56.47;13.98;;;;;;;12.16;100.00;99392.13;5043759;28;20091;-65
2021/09/28 06:46:35;;;;;;;33.97;11.18;;;;;;;12.33;100.00;99394.50;5043731;28;20104;-65
2021/09/28 06:49:01;;;;;;;43.80;12.57;;;;;;;12.27;100.00;99395.47;5043664;28;20025;-66
2021/09/28 06:51:27;;;;;;;78.32;13.13;;;;;;;12.12;100.00;99390.41;5043686;28;20085;-66
2021/09/28 06:53:52;;;;;;;43.05;12.60;;;;;;;12.13;100.00;99389.53;5043671;28;20394;-66
2021/09/28 06:56:18;;;;;;;21.48;11.82;;;;;;;12.26;100.00;99399.03;5043674;28;20021;-66
2021/09/28 06:58:45;;;;;;;20.88;11.50;;;;;;;12.31;100.00;99394.53;5043671;28;20025;-66
2021/09/28 07:01:11;;;;;;;32.65;12.80;;;;;;;12.31;100.00;99402.44;5043651;28;20228;-66
2021/09/28 07:03:37;;;;;;;20.13;12.13;;;;;;;12.32;100.00;99398.94;5043560;28;20025;-66
2021/09/28 07:06:02;;;;;;;20.92;11.55;;;;;;;12.48;100.00;99395.19;5043576;28;20382;-66
2021/09/28 07:08:29;;;;;;;24.40;12.18;;;;;;;12.65;99.80;99398.44;5043508;28;20032;-66
2021/09/28 07:10:54;;;;;;;30.92;12.15;;;;;;;13.06;97.28;99404.84;5043542;28;20022;-66
2021/09/28 07:13:19;;;;;;;21.58;11.93;;;;;;;13.57;96.61;99398.63;5043390;28;20056;-66
2021/09/28 07:15:45;;;;;;;16.85;11.02;;;;;;;13.69;95.98;99408.94;5043470;28;20025;-66
2021/09/28 07:18:11;;;;;;;19.77;9.93;;;;;;;13.76;94.13;99400.03;5043473;28;20013;-66
2021/09/28 07:20:38;;;;;;;16.95;10.25;;;;;;;14.05;92.67;99424.13;5046522;28;20025;-66
2021/09/28 07:23:04;;;;;;;18.45;10.93;;;;;;;14.27;91.64;99389.22;5047199;28;20025;-66
2021/09/28 07:25:30;;;;;;;17.48;10.77;;;;;;;14.45;92.37;99387.94;5047200;28;20025;-66
2021/09/28 07:27:58;;;;;;;17.70;9.05;;;;;;;14.50;92.19;99392.25;5047033;28;20034;-66
2021/09/28 07:30:25;;;;;;;18.73;11.15;;;;;;;14.19;93.49;99395.56;5047363;28;20029;-66
2021/09/28 07:32:51;;;;;;;29.52;11.90;;;;;;;14.32;92.60;99391.75;5047015;28;20093;-66
2021/09/28 07:35:17;;;;;;;17.58;10.40;;;;;;;14.16;91.50;99398.28;5046978;28;20032;-66
2021/09/28 07:37:42;;;;;;;22.25;10.75;;;;;;;13.80;92.41;99397.28;5046929;28;20021;-66
2021/09/28 07:40:08;;;;;;;17.67;10.25;;;;;;;13.88;92.93;99399.75;5046927;28;20017;-66
2021/09/28 07:42:34;;;;;;;17.08;10.45;;;;;;;14.35;92.01;99397.00;5046812;28;20041;-66
2021/09/28 07:45:03;;;;;;;17.95;9.88;;;;;;;15.51;85.62;99397.66;5046844;28;20025;-66
2021/09/28 07:47:29;;;;;;;16.70;9.27;;;;;;;16.71;84.08;99411.84;5046699;28;20018;-66
2021/09/28 07:49:54;;;;;;;18.50;9.13;;;;;;;17.20;79.78;99410.19;5046709;28;20032;-66
2021/09/28 07:52:19;;;;;;;13.38;8.02;;;;;;;17.78;75.80;99397.53;5046685;28;20093;-66
2021/09/28 07:54:45;;;;;;;19.17;7.82;;;;;;;17.75;71.92;99400.31;5046656;28;20092;-66
2021/09/28 07:57:10;;;;;;;11.90;6.75;;;;;;;17.23;76.11;99399.44;5046581;28;20055;-66
2021/09/28 07:59:37;;;;;;;11.10;6.30;;;;;;;16.44;78.12;99405.59;5046820;28;20045;-66
2021/09/28 08:02:02;;;;;;;15.63;7.75;;;;;;;15.97;80.84;99406.06;5046455;28;20021;-66
2021/09/28 08:04:28;;;;;;;16.60;8.75;;;;;;;15.26;83.03;99407.16;5046424;28;20025;-66
2021/09/28 08:06:55;;;;;;;14.55;7.35;;;;;;;15.55;82.27;99412.59;5046713;28;20023;-66
2021/09/28 08:09:21;;;;;;;13.00;7.63;;;;;;;15.19;83.40;99405.56;5046281;28;20025;-66
2021/09/28 08:11:46;;;;;;;17.48;7.68;;;;;;;14.82;85.81;99410.03;5046327;28;20078;-66
2021/09/28 08:14:12;;;;;;;13.63;8.02;;;;;;;15.04;87.48;99406.78;5046130;28;20352;-66
2021/09/28 08:16:37;;;;;;;13.60;7.50;;;;;;;15.29;83.69;99401.75;5046246;28;20344;-66
2021/09/28 08:19:04;;;;;;;14.85;7.90;;;;;;;15.51;84.61;99397.66;5046189;28;20013;-66
2021/09/28 08:21:30;;;;;;;15.65;8.05;;;;;;;15.67;84.06;99396.34;5046182;28;20021;-66
2021/09/28 08:23:55;;;;;;;15.95;7.70;;;;;;;16.21;84.19;99394.75;5046089;28;20368;-66
2021/09/28 08:29:09;;;;;;;15.52;7.57;;;;;;;15.94;82.78;99397.31;5046226;28;20100;-66
2021/09/28 08:31:40;;;;;;;17.65;7.25;;;;;;;15.49;82.43;99399.47;5045354;28;20076;-66
2021/09/28 08:34:06;;;;;;;9.68;6.60;;;;;;;15.63;83.64;99389.34;5046237;28;20048;-66
2021/09/28 08:36:32;;;;;;;14.73;6.72;;;;;;;15.48;86.18;99397.75;5045909;28;20088;-66
2021/09/28 08:38:58;;;;;;;14.60;6.63;;;;;;;15.76;85.17;99390.75;5045824;28;20017;-66
2021/09/28 08:41:24;;;;;;;15.25;6.70;;;;;;;16.24;83.57;99392.00;5045784;28;20320;-66
2021/09/28 08:43:49;;;;;;;13.90;7.65;;;;;;;15.82;83.64;99387.91;5045751;28;20063;-66
2021/09/28 08:46:16;;;;;;;11.30;6.47;;;;;;;16.03;83.69;99381.13;5045680;28;20085;-66
2021/09/28 08:48:42;;;;;;;13.98;6.78;;;;;;;16.28;80.90;99376.81;5045572;28;20271;-66
2021/09/28 08:51:09;;;;;;;19.42;7.47;;;;;;;16.36;79.74;99386.28;5045604;28;20067;-66
2021/09/28 08:53:36;;;;;;;18.60;6.22;;;;;;;16.36;80.61;99380.97;5045564;28;20026;-66
2021/09/28 08:56:01;;;;;;;11.43;6.32;;;;;;;16.33;79.89;99378.41;5045527;28;20021;-66
2021/09/28 08:58:28;;;;;;;14.80;5.40;;;;;;;16.32;81.23;99367.84;5045458;28;20017;-66
2021/09/28 09:01:03;;;;;;;14.90;5.53;;;;;;;16.93;78.82;99363.22;5045427;28;20224;-66
2021/09/28 09:03:30;;;;;;;9.20;5.20;;;;;;;17.46;77.17;99374.72;5045333;28;20025;-66
2021/09/28 09:05:58;;;;;;;15.27;5.60;;;;;;;16.74;78.87;99378.03;5045308;28;20025;-66
2021/09/28 09:08:33;;;;;;;14.32;5.55;;;;;;;16.79;77.11;99369.91;5044011;28;20088;-66
2021/09/28 09:11:07;;;;;;;8.80;4.68;;;;;;;17.01;78.38;99374.47;5045244;28;20021;-66
2021/09/28 09:13:39;;;;;;;10.57;4.25;;;;;;;16.33;79.43;99370.44;5045034;28;20049;-66
2021/09/28 09:16:05;;;;;;;;;;;;;;;16.41;79.00;99368.44;5044434;28;20024;-66
2021/09/28 09:18:35;;;;;;;13.25;4.55;;;;;;;17.59;77.34;99362.69;5045051;28;19976;-66
2021/09/28 09:21:03;;;;;;;8.95;4.90;;;;;;;17.82;74.01;99356.56;5045074;28;20026;-66
2021/09/28 09:23:35;;;;;;;11.63;4.75;;;;;;;17.14;72.99;99357.19;5044940;28;20022;-66
2021/09/28 09:26:00;;;;;;;17.20;4.30;;;;;;;16.70;76.27;99363.09;5045048;28;20060;-66
2021/09/28 09:28:31;;;;;;;12.07;3.95;;;;;;;17.37;72.78;99358.19;5044775;28;20029;-66
2021/09/28 09:31:24;;;;;;;13.02;3.70;;;;;;;17.80;71.93;99361.94;5044847;28;20052;-66
2021/09/28 09:33:55;;;;;;;14.57;3.90;;;;;;;16.87;73.33;99357.25;5044450;28;20332;-66
2021/09/28 09:36:22;;;;;;;15.40;4.32;;;;;;;17.20;75.69;99351.66;5044806;28;20021;-66
2021/09/28 09:38:57;;;;;;;14.25;3.40;;;;;;;17.88;71.39;99357.19;5044692;28;20044;-66
2021/09/28 09:41:28;;;;;;;13.18;4.05;;;;;;;17.96;66.83;99343.56;5044692;28;20076;-66
2021/09/28 09:44:05;;;;;;;10.70;2.95;;;;;;;18.35;66.56;99337.59;5043666;28;20025;-66
2021/09/28 09:46:42;;;;;;;10.48;3.55;;;;;;;18.58;66.42;99345.56;5044578;28;20060;-66
2021/09/28 09:49:09;;;;;;;8.48;2.90;;;;;;;18.40;66.28;99329.44;5043264;28;20140;-66
2021/09/28 09:51:46;;;;;;;10.25;3.20;;;;;;;18.10;70.44;99322.63;5044453;28;20028;-66
2021/09/28 09:54:12;;;;;;;13.30;3.13;;;;;;;18.49;70.36;99323.75;5044429;28;20127;-66
2021/09/28 09:56:43;;;;;;;14.93;3.20;;;;;;;18.72;64.56;99321.00;5044361;28;20317;-66
2021/09/28 09:59:10;;;;;;;6.43;2.95;;;;;;;18.18;67.13;99324.06;5044395;28;20376;-66
2021/09/28 10:01:36;;;;;;;9.15;2.90;;;;;;;18.69;66.60;99311.34;5044350;28;20029;-66
2021/09/28 10:04:05;;;;;;;17.80;3.10;;;;;;;18.70;66.97;99317.56;5044202;28;20021;-66
2021/09/28 10:06:30;;;;;;;12.23;2.85;;;;;;;18.81;70.10;99320.63;5043060;28;20027;-66
2021/09/28 10:08:56;;;;;;;7.78;2.63;;;;;;;18.69;66.81;99314.00;5044144;28;20045;-66
2021/09/28 10:11:22;;;;;;;14.23;3.00;;;;;;;18.53;67.24;99309.38;5044147;28;20021;-66
2021/09/28 10:13:48;;;;;;;10.05;2.92;;;;;;;19.46;62.99;99305.38;5044001;28;20041;-66
2021/09/28 10:16:53;;;;;;;10.63;2.65;;;;;;;19.48;61.35;99316.84;5044107;28;20320;-66
2021/09/28 10:19:32;;;;;;;10.20;2.97;;;;;;;18.33;67.79;99317.25;5042267;28;20349;-66
2021/09/28 10:21:59;;;;;;;15.30;2.92;;;;;;;17.63;66.69;99318.22;5042257;28;20040;-66
2021/09/28 10:24:32;;;;;;;12.77;3.13;;;;;;;17.70;67.34;99314.41;5042286;28;20025;-66
2021/09/28 10:27:00;;;;;;;12.50;3.05;;;;;;;18.03;67.14;99308.66;5042294;28;20337;-66
2021/09/28 10:29:37;;;;;;;14.93;3.20;;;;;;;17.96;67.40;99311.63;5042159;28;20213;-66
2021/09/28 10:32:21;;;;;;;9.00;2.63;;;;;;;18.92;66.44;99299.72;5042278;28;20025;-66
2021/09/28 10:35:02;;;;;;;7.07;2.22;;;;;;;18.57;62.64;99295.84;5042176;28;20034;-66
2021/09/28 10:37:42;;;;;;;10.18;2.45;;;;;;;19.46;62.57;99300.03;5042164;28;20044;-66
2021/09/28 10:40:28;;;;;;;17.17;2.60;;;;;;;19.78;62.45;99299.47;5025581;28;20062;-66
2021/09/28 10:42:59;;;;;;;9.68;2.47;;;;;;;19.69;59.59;99291.88;5041978;28;20029;-66
2021/09/28 10:45:30;;;;;;;10.68;1.95;;;;;;;19.44;56.85;99283.22;5042126;28;20083;-66
2021/09/28 10:47:57;;;;;;;10.75;2.35;;;;;;;19.02;58.78;99282.41;5041973;28;20037;-66
2021/09/28 10:50:34;;;;;;;18.85;2.97;;;;;;;19.03;60.32;99276.13;5042003;28;20087;-66
2021/09/28 10:53:04;;;;;;;10.32;2.50;;;;;;;18.85;59.98;99271.56;5042736;28;20044;-66
2021/09/28 10:55:38;;;;;;;7.03;2.08;;;;;;;19.29;59.38;99267.03;5046761;28;20021;-66
2021/09/28 10:58:14;;;;;;;6.35;2.25;;;;;;;18.96;59.33;99250.63;5047745;28;20022;-66
2021/09/28 11:00:40;;;;;;;6.97;1.90;;;;;;;19.14;58.78;99245.34;5047708;28;20021;-66
2021/09/28 11:03:06;;;;;;;5.47;2.17;;;;;;;19.58;59.05;99251.41;5047655;28;20068;-66
2021/09/28 11:05:39;;;;;;;12.07;2.45;;;;;;;19.19;59.29;99247.84;5047571;28;20320;-66
2021/09/28 11:08:09;;;;;;;9.55;2.90;;;;;;;19.12;59.36;99236.53;5047585;28;20217;-66
2021/09/28 11:10:37;;;;;;;7.68;1.83;;;;;;;19.20;58.99;99239.75;5047484;28;20072;-66
2021/09/28 11:13:32;;;;;;;9.10;2.20;;;;;;;18.99;60.11;99234.50;5047317;28;20067;-66
2021/09/28 11:15:59;;;;;;;10.70;2.05;;;;;;;18.80;58.51;99222.88;5047436;28;20051;-66
2021/09/28 11:18:25;;;;;;;13.23;2.10;;;;;;;18.65;58.17;99226.22;5047322;28;20085;-66
2021/09/28 11:20:51;;;;;;;8.98;2.25;;;;;;;18.69;58.74;99214.47;5047307;28;20032;-66